Time;durP1;ratioP1;P1;durP2;ratioP2;P2;SDS_P1;SDS_P2;PMS_P1;PMS_P2;Temp;Humidity;BMP_temperature;BMP_pressure;BME280_temperature;BME280_humidity;BME280_pressure;Samples;Min_cycle;Max_cycle;Signal;HPM_P1;HPM_P2
2023/03/12 00:00:21;;;;;;;14.80;3.30;;;11.70;99.90;;;;;;4934513;29;20511;-80
2023/03/12 00:02:46;;;;;;;14.35;3.00;;;11.70;99.90;;;;;;4915936;29;20028;-79
2023/03/12 00:05:12;;;;;;;15.73;3.30;;;11.60;99.90;;;;;;4924658;29;20024;-79
2023/03/12 00:07:38;;;;;;;18.42;3.28;;;11.60;99.90;;;;;;4942356;29;20035;-80
2023/03/12 00:10:05;;;;;;;14.02;3.35;;;11.60;99.90;;;;;;4921785;29;20036;-78
2023/03/12 00:12:30;;;;;;;13.88;3.42;;;11.60;99.90;;;;;;4923523;29;20036;-77
2023/03/12 00:14:56;;;;;;;17.70;3.65;;;11.60;99.90;;;;;;4923202;29;20032;-78
2023/03/12 00:17:22;;;;;;;11.27;3.42;;;11.50;99.90;;;;;;4932840;29;20032;-80
2023/03/12 00:19:51;;;;;;;18.15;3.40;;;11.40;99.90;;;;;;4916624;29;20055;-79
2023/03/12 00:22:21;;;;;;;12.45;2.80;;;11.40;99.90;;;;;;4945638;29;20500;-78
2023/03/12 00:24:50;;;;;;;16.42;3.40;;;11.40;99.90;;;;;;4931596;29;20046;-78
2023/03/12 00:27:15;;;;;;;12.27;3.42;;;11.40;99.90;;;;;;4950830;29;20028;-78
2023/03/12 00:29:41;;;;;;;12.60;3.30;;;11.40;99.90;;;;;;4932101;29;20015;-78
2023/03/12 00:32:07;;;;;;;15.32;3.00;;;11.40;99.90;;;;;;4950983;29;20046;-78
2023/03/12 00:34:32;;;;;;;14.52;2.92;;;11.40;99.90;;;;;;4933124;29;20035;-79
2023/03/12 00:36:58;;;;;;;12.85;3.30;;;11.40;99.90;;;;;;4949014;29;20633;-78
2023/03/12 00:39:24;;;;;;;14.05;3.10;;;11.40;99.90;;;;;;4954694;29;20051;-78
2023/03/12 00:41:49;;;;;;;13.85;3.60;;;11.40;99.90;;;;;;4949666;29;20031;-78
2023/03/12 00:44:15;;;;;;;19.13;3.45;;;11.40;99.90;;;;;;4952075;29;20019;-78
2023/03/12 00:46:40;;;;;;;10.95;3.05;;;11.30;99.90;;;;;;4957076;29;20024;-78
2023/03/12 00:49:06;;;;;;;9.85;2.83;;;11.40;99.90;;;;;;4940291;29;20030;-78
2023/03/12 00:51:32;;;;;;;8.13;2.88;;;11.40;99.90;;;;;;4943774;29;20050;-77
2023/03/12 00:53:58;;;;;;;16.60;3.65;;;11.40;99.90;;;;;;4959019;29;20023;-78
2023/03/12 00:56:23;;;;;;;13.77;2.95;;;11.40;99.90;;;;;;4943738;29;20037;-78
2023/03/12 00:58:49;;;;;;;15.45;3.30;;;11.30;99.90;;;;;;4960503;29;20500;-78
2023/03/12 01:01:14;;;;;;;16.38;2.75;;;11.30;99.90;;;;;;4959779;28;20523;-78
2023/03/12 01:03:40;;;;;;;15.18;3.53;;;11.30;99.90;;;;;;4943373;29;20031;-79
2023/03/12 01:06:06;;;;;;;12.07;3.08;;;11.30;99.90;;;;;;4960070;29;20024;-77
2023/03/12 01:08:32;;;;;;;17.60;3.58;;;11.30;99.90;;;;;;4958866;29;20031;-78
2023/03/12 01:10:57;;;;;;;12.80;3.20;;;11.30;99.90;;;;;;4942485;29;20034;-78
2023/03/12 01:13:23;;;;;;;16.30;3.17;;;11.30;99.90;;;;;;4942816;29;20027;-78
2023/03/12 01:15:49;;;;;;;14.65;3.03;;;11.20;99.90;;;;;;4960408;29;20101;-79
2023/03/12 01:18:14;;;;;;;13.07;2.88;;;11.20;99.90;;;;;;4960179;29;20027;-77
2023/03/12 01:20:40;;;;;;;14.65;4.13;;;11.20;99.90;;;;;;4943070;28;20468;-77
2023/03/12 01:23:06;;;;;;;14.05;3.13;;;11.00;99.90;;;;;;4959951;29;20032;-78
2023/03/12 01:25:33;;;;;;;16.00;3.17;;;11.00;99.90;;;;;;4943192;29;20096;-77
2023/03/12 01:27:59;;;;;;;16.55;3.22;;;11.00;99.90;;;;;;4943069;29;20499;-78
2023/03/12 01:30:24;;;;;;;13.70;3.22;;;10.90;99.90;;;;;;4960204;29;20050;-79
2023/03/12 01:32:51;;;;;;;12.05;2.92;;;10.90;99.90;;;;;;4942980;29;20078;-79
2023/03/12 01:35:16;;;;;;;12.07;3.00;;;10.80;99.90;;;;;;4943140;29;20035;-78
2023/03/12 01:37:42;;;;;;;11.55;2.58;;;10.80;99.90;;;;;;4942683;29;20027;-78
2023/03/12 01:40:20;;;;;;;13.27;2.90;;;10.80;99.90;;;;;;4942459;29;20035;-77
2023/03/12 01:42:53;;;;;;;15.10;3.03;;;10.80;99.90;;;;;;4940945;29;20496;-78
2023/03/12 01:45:38;;;;;;;;;;;10.80;99.90;;;;;;4924280;29;20088;-78
2023/03/12 01:48:03;;;;;;;;;;;10.70;99.90;;;;;;4944061;29;19907;-78
2023/03/12 01:50:29;;;;;;;14.25;2.28;;;10.70;99.90;;;;;;4941095;29;20393;-77
2023/03/12 01:52:55;;;;;;;13.68;2.80;;;10.70;99.90;;;;;;4940646;29;20024;-78
2023/03/12 01:55:20;;;;;;;11.90;2.28;;;10.60;99.90;;;;;;4940399;29;20038;-78
2023/03/12 01:57:56;;;;;;;12.55;3.20;;;10.60;99.90;;;;;;4923718;29;20038;-78
2023/03/12 02:00:25;;;;;;;11.55;2.83;;;10.50;99.90;;;;;;4923557;29;20048;-78
2023/03/12 02:02:52;;;;;;;12.55;3.10;;;10.50;99.90;;;;;;4940525;29;20074;-78
2023/03/12 02:05:59;;;;;;;11.15;2.65;;;10.50;99.90;;;;;;4940589;29;20028;-78
2023/03/12 02:08:25;;;;;;;13.25;2.92;;;10.40;99.90;;;;;;4939967;29;20488;-78
2023/03/12 02:10:51;;;;;;;10.57;3.03;;;10.40;99.90;;;;;;4940347;29;20063;-78
2023/03/12 02:13:17;;;;;;;9.70;2.70;;;10.40;99.90;;;;;;4940173;29;20031;-78
2023/03/12 02:15:43;;;;;;;14.05;2.60;;;10.30;99.90;;;;;;4923542;29;20031;-78
2023/03/12 02:18:12;;;;;;;15.18;3.00;;;10.30;99.90;;;;;;4940310;29;20533;-78
2023/03/12 02:21:00;;;;;;;9.63;2.42;;;10.30;99.90;;;;;;4923090;29;20055;-77
2023/03/12 02:23:31;;;;;;;11.82;3.33;;;10.30;99.90;;;;;;4922864;29;20496;-79
2023/03/12 02:25:57;;;;;;;9.70;2.70;;;10.30;99.90;;;;;;4922948;29;20032;-79
2023/03/12 02:28:26;;;;;;;13.60;2.58;;;10.30;99.90;;;;;;4923129;29;20449;-78
2023/03/12 02:30:57;;;;;;;13.85;2.55;;;10.30;99.90;;;;;;4940004;29;20024;-78
2023/03/12 02:33:23;;;;;;;8.38;1.92;;;10.30;99.90;;;;;;4940179;29;20031;-78
2023/03/12 02:35:51;;;;;;;11.55;2.60;;;10.20;99.90;;;;;;4939918;29;20099;-79
2023/03/12 02:38:38;;;;;;;12.80;3.25;;;10.20;99.90;;;;;;4922744;29;20031;-78
2023/03/12 02:41:15;;;;;;;9.40;2.00;;;10.20;99.90;;;;;;4922852;29;20024;-79
2023/03/12 02:43:45;;;;;;;9.13;2.33;;;10.20;99.90;;;;;;4939780;29;20374;-79
2023/03/12 02:46:11;;;;;;;9.73;2.30;;;10.20;99.90;;;;;;4923282;29;20496;-79
2023/03/12 02:48:37;;;;;;;11.68;2.50;;;10.20;99.90;;;;;;4936522;29;20024;-79
2023/03/12 02:51:03;;;;;;;10.55;2.28;;;10.20;99.90;;;;;;4939956;29;20516;-79
2023/03/12 02:53:29;;;;;;;11.70;2.88;;;10.20;99.90;;;;;;4922451;29;20039;-79
2023/03/12 02:55:54;;;;;;;13.15;3.40;;;10.10;99.90;;;;;;4939894;29;20031;-79
2023/03/12 02:58:20;;;;;;;16.63;3.20;;;10.20;99.90;;;;;;4939858;29;20159;-78
2023/03/12 03:00:46;;;;;;;12.65;2.90;;;10.20;99.90;;;;;;4939915;29;20510;-78
2023/03/12 03:03:12;;;;;;;10.13;2.63;;;10.10;99.90;;;;;;4939574;29;20031;-79
2023/03/12 03:05:37;;;;;;;11.45;2.83;;;10.10;99.90;;;;;;4939919;29;20515;-79
2023/03/12 03:08:04;;;;;;;7.28;2.22;;;10.10;99.90;;;;;;4939608;29;20035;-78
2023/03/12 03:10:30;;;;;;;12.85;2.97;;;10.10;99.90;;;;;;4939744;29;20177;-78
2023/03/12 03:12:56;;;;;;;12.68;2.63;;;10.10;99.90;;;;;;4939695;29;20059;-78
2023/03/12 03:15:22;;;;;;;11.23;2.55;;;10.00;99.90;;;;;;4939803;29;20035;-77
2023/03/12 03:17:48;;;;;;;12.95;3.20;;;10.00;99.90;;;;;;4939600;29;20035;-78
2023/03/12 03:20:13;;;;;;;10.23;3.05;;;10.00;99.90;;;;;;4922912;29;20027;-79
2023/03/12 03:22:39;;;;;;;12.27;3.08;;;10.00;99.90;;;;;;4956123;28;20047;-79
2023/03/12 03:25:06;;;;;;;12.88;2.72;;;10.00;99.90;;;;;;4962604;29;20023;-78
2023/03/12 03:27:32;;;;;;;14.50;2.67;;;10.00;99.90;;;;;;4945467;29;20059;-79
2023/03/12 03:29:58;;;;;;;14.20;3.28;;;10.00;99.90;;;;;;4945143;29;20484;-78
2023/03/12 03:32:23;;;;;;;9.55;3.03;;;10.00;99.90;;;;;;4962439;29;20035;-78
2023/03/12 03:34:49;;;;;;;12.00;2.92;;;9.90;99.90;;;;;;4962304;29;20027;-79
2023/03/12 03:37:14;;;;;;;13.18;2.85;;;9.90;99.90;;;;;;4944949;29;20031;-78
2023/03/12 03:39:40;;;;;;;9.07;2.60;;;9.90;99.90;;;;;;4962413;29;20030;-79
2023/03/12 03:42:06;;;;;;;9.88;2.60;;;9.90;99.90;;;;;;4948281;29;20046;-79
2023/03/12 03:44:31;;;;;;;10.98;2.90;;;9.90;99.90;;;;;;4926393;29;20381;-79
2023/03/12 03:46:57;;;;;;;10.05;2.85;;;9.90;99.90;;;;;;4926137;29;20034;-80
2023/03/12 03:49:23;;;;;;;11.65;2.67;;;9.80;99.90;;;;;;4929058;29;20031;-80
2023/03/12 03:51:50;;;;;;;11.15;2.53;;;9.80;99.90;;;;;;4925729;29;20039;-79
2023/03/12 03:54:17;;;;;;;8.95;2.50;;;9.80;99.90;;;;;;4943077;29;20026;-79
2023/03/12 03:56:43;;;;;;;14.13;3.67;;;9.80;99.90;;;;;;4926442;29;20511;-79
2023/03/12 03:59:09;;;;;;;8.85;2.92;;;9.80;99.90;;;;;;4944961;29;20475;-79
2023/03/12 04:01:35;;;;;;;8.05;2.25;;;9.80;99.90;;;;;;4961737;29;20030;-80
2023/03/12 04:04:02;;;;;;;11.63;3.22;;;9.80;99.90;;;;;;4944814;29;20028;-80
2023/03/12 04:06:28;;;;;;;9.60;3.03;;;9.70;99.90;;;;;;4961559;29;20030;-80
2023/03/12 04:08:55;;;;;;;8.57;2.20;;;9.60;99.90;;;;;;4944578;29;20023;-80
2023/03/12 04:11:21;;;;;;;15.57;3.70;;;9.60;99.90;;;;;;4961444;29;20070;-80
2023/03/12 04:13:48;;;;;;;9.35;2.53;;;9.60;99.90;;;;;;4961704;29;20024;-81
2023/03/12 04:16:15;;;;;;;10.23;2.47;;;9.60;99.90;;;;;;4961434;29;20484;-80
2023/03/12 04:18:41;;;;;;;7.80;2.20;;;9.60;99.90;;;;;;4961643;29;20074;-80
2023/03/12 04:21:09;;;;;;;14.20;2.70;;;9.60;99.90;;;;;;4961275;28;20043;-82
2023/03/12 04:23:36;;;;;;;7.20;1.95;;;9.60;99.90;;;;;;4944026;29;20120;-82
2023/03/12 04:26:03;;;;;;;14.05;2.92;;;9.60;99.90;;;;;;4944334;29;20061;-82
2023/03/12 04:28:29;;;;;;;8.30;2.30;;;9.60;99.90;;;;;;4944370;29;20026;-84
2023/03/12 04:31:00;;;;;;;10.07;2.45;;;9.50;99.90;;;;;;4961224;29;20027;-83
2023/03/12 04:33:26;;;;;;;8.65;2.35;;;9.50;99.90;;;;;;4961314;29;20023;-84
2023/03/12 04:35:52;;;;;;;5.55;2.22;;;9.50;99.90;;;;;;4942808;29;20511;-83
2023/03/12 04:38:20;;;;;;;11.20;2.40;;;9.50;99.90;;;;;;4961134;29;20023;-84
2023/03/12 04:40:45;;;;;;;9.80;2.70;;;9.40;99.90;;;;;;4940672;29;20059;-84
2023/03/12 04:43:11;;;;;;;8.10;2.30;;;9.50;99.90;;;;;;4941873;29;20038;-84
2023/03/12 04:45:41;;;;;;;8.00;2.05;;;9.50;99.90;;;;;;4941794;29;20048;-85
2023/03/12 04:48:07;;;;;;;11.07;2.85;;;9.40;99.90;;;;;;4927712;29;20020;-84
2023/03/12 04:50:33;;;;;;;8.18;2.20;;;9.40;99.90;;;;;;4941644;29;20028;-84
2023/03/12 04:52:59;;;;;;;9.45;1.92;;;9.40;99.90;;;;;;4941573;29;20696;-84
2023/03/12 04:55:24;;;;;;;12.35;2.67;;;9.30;99.90;;;;;;4924310;29;20032;-83
2023/03/12 04:57:50;;;;;;;7.90;2.38;;;9.40;99.90;;;;;;4924576;29;20035;-84
2023/03/12 05:00:16;;;;;;;9.57;2.55;;;9.30;99.90;;;;;;4941500;29;20042;-84
2023/03/12 05:02:42;;;;;;;7.85;2.08;;;9.40;99.90;;;;;;4924380;29;20019;-83
2023/03/12 05:05:10;;;;;;;5.63;1.70;;;9.30;99.90;;;;;;4941427;29;20031;-84
2023/03/12 05:07:35;;;;;;;10.13;2.90;;;9.30;99.90;;;;;;4941440;29;20028;-83
2023/03/12 05:10:01;;;;;;;9.20;2.33;;;9.30;99.90;;;;;;4941236;29;20031;-84
2023/03/12 05:12:27;;;;;;;9.25;2.08;;;9.30;99.90;;;;;;4924282;29;20031;-83
2023/03/12 05:14:52;;;;;;;9.73;2.20;;;9.30;99.90;;;;;;4941266;29;20043;-83
2023/03/12 05:17:18;;;;;;;9.13;2.03;;;9.30;99.90;;;;;;4941263;29;20102;-83
2023/03/12 05:19:44;;;;;;;5.78;2.15;;;9.30;99.90;;;;;;4940988;29;20050;-83
2023/03/12 05:22:09;;;;;;;9.20;2.20;;;9.30;99.90;;;;;;4941094;29;20043;-82
2023/03/12 05:24:35;;;;;;;11.27;2.60;;;9.20;99.90;;;;;;4940723;29;20028;-82
2023/03/12 05:27:01;;;;;;;10.77;2.70;;;9.20;99.90;;;;;;4924277;29;20362;-82
2023/03/12 05:29:28;;;;;;;8.63;2.40;;;9.20;99.90;;;;;;4941253;29;20023;-82
2023/03/12 05:31:54;;;;;;;10.85;2.80;;;9.20;99.90;;;;;;4940992;29;20031;-82
2023/03/12 05:34:19;;;;;;;8.77;2.75;;;9.20;99.90;;;;;;4940911;29;20404;-82
2023/03/12 05:36:45;;;;;;;9.18;2.53;;;9.20;99.90;;;;;;4923914;29;20024;-82
2023/03/12 05:39:11;;;;;;;10.60;2.50;;;9.10;99.90;;;;;;4940854;29;20031;-81
2023/03/12 05:41:37;;;;;;;9.30;2.50;;;9.10;99.90;;;;;;4940587;29;20020;-81
2023/03/12 05:44:02;;;;;;;8.98;2.22;;;9.10;99.90;;;;;;4923954;29;20024;-82
2023/03/12 05:46:28;;;;;;;7.32;2.45;;;9.10;99.90;;;;;;4940534;29;20091;-81
2023/03/12 05:48:54;;;;;;;9.00;2.75;;;9.10;99.90;;;;;;4929138;29;20524;-82
2023/03/12 05:51:20;;;;;;;9.60;2.33;;;9.10;99.90;;;;;;4921711;29;20032;-81
2023/03/12 05:53:46;;;;;;;9.00;2.33;;;9.10;99.90;;;;;;4921249;29;20501;-81
2023/03/12 05:56:14;;;;;;;12.43;3.00;;;9.10;99.90;;;;;;4921474;29;20039;-81
2023/03/12 05:58:40;;;;;;;8.38;2.60;;;9.10;99.90;;;;;;4921466;29;20052;-81
2023/03/12 06:01:22;;;;;;;10.35;2.47;;;9.10;99.90;;;;;;4921559;29;20039;-81
2023/03/12 06:03:47;;;;;;;9.25;2.58;;;9.10;99.90;;;;;;4921053;29;20367;-81
2023/03/12 06:06:13;;;;;;;10.70;2.55;;;9.10;99.90;;;;;;4921648;29;20107;-81
2023/03/12 06:08:39;;;;;;;9.40;2.38;;;9.10;99.90;;;;;;4921320;29;20027;-80
2023/03/12 06:11:05;;;;;;;9.60;2.20;;;9.10;99.90;;;;;;4921393;29;20024;-81
2023/03/12 06:13:31;;;;;;;10.43;2.97;;;9.10;99.90;;;;;;4921387;29;20535;-81
2023/03/12 06:16:04;;;;;;;10.98;2.53;;;9.10;99.90;;;;;;4921291;29;20059;-81
2023/03/12 06:18:31;;;;;;;12.20;2.40;;;9.10;99.90;;;;;;4904228;29;20043;-81
2023/03/12 06:21:14;;;;;;;10.10;2.65;;;9.10;99.90;;;;;;4924138;29;20114;-81
2023/03/12 06:23:41;;;;;;;7.88;2.35;;;9.10;99.90;;;;;;4939936;29;20040;-81
2023/03/12 06:26:07;;;;;;;8.63;2.83;;;9.10;99.90;;;;;;4940028;29;20071;-81
2023/03/12 06:28:34;;;;;;;9.65;2.78;;;9.20;99.90;;;;;;4940260;29;20132;-81
2023/03/12 06:31:00;;;;;;;10.10;2.33;;;9.20;99.90;;;;;;4939783;29;20023;-82
2023/03/12 06:33:25;;;;;;;12.15;2.83;;;9.20;99.90;;;;;;4940317;29;20519;-81
2023/03/12 06:35:55;;;;;;;6.90;2.03;;;9.20;99.90;;;;;;4939978;29;20032;-83
2023/03/12 06:38:21;;;;;;;9.10;1.95;;;9.20;99.90;;;;;;4939785;29;20384;-82
2023/03/12 06:40:58;;;;;;;8.15;2.47;;;9.10;99.90;;;;;;4952773;28;20035;-82
2023/03/12 06:43:25;;;;;;;6.38;2.00;;;9.10;99.90;;;;;;4939994;29;20027;-81
2023/03/12 06:45:52;;;;;;;8.98;2.25;;;9.10;99.90;;;;;;4939847;29;20024;-82
2023/03/12 06:48:18;;;;;;;5.78;2.40;;;9.00;99.90;;;;;;4942913;29;20080;-80
2023/03/12 06:50:44;;;;;;;8.82;2.58;;;9.00;99.90;;;;;;4939718;29;20031;-81
2023/03/12 06:53:09;;;;;;;9.75;2.30;;;9.00;99.90;;;;;;4939717;29;20118;-80
2023/03/12 06:55:35;;;;;;;5.95;1.88;;;9.00;99.90;;;;;;4957298;29;20480;-81
2023/03/12 06:58:02;;;;;;;7.40;2.20;;;9.00;99.90;;;;;;4959596;28;20377;-81
2023/03/12 07:00:29;;;;;;;7.40;2.22;;;9.00;99.90;;;;;;4945820;29;20395;-81
2023/03/12 07:02:55;;;;;;;10.02;2.53;;;9.00;99.90;;;;;;4962829;29;20034;-81
2023/03/12 07:05:22;;;;;;;6.50;2.08;;;9.00;99.90;;;;;;4945378;29;20055;-81
2023/03/12 07:07:47;;;;;;;6.70;2.05;;;9.10;99.90;;;;;;4962660;29;20030;-81
2023/03/12 07:10:13;;;;;;;8.45;1.92;;;9.10;99.90;;;;;;4962497;29;20447;-81
2023/03/12 07:12:39;;;;;;;9.57;2.20;;;9.10;99.90;;;;;;4962775;29;20551;-80
2023/03/12 07:15:05;;;;;;;7.35;2.33;;;9.10;99.90;;;;;;4962588;29;20034;-80
2023/03/12 07:17:31;;;;;;;5.38;1.58;;;9.10;99.90;;;;;;4945475;29;20023;-81
2023/03/12 07:19:56;;;;;;;5.30;1.92;;;9.20;99.90;;;;;;4962460;29;20436;-80
2023/03/12 07:22:22;;;;;;;5.95;1.83;;;9.20;99.90;;;;;;4962132;28;20043;-80
2023/03/12 07:24:47;;;;;;;6.93;2.20;;;9.20;99.90;;;;;;4962331;29;20030;-80
2023/03/12 07:27:13;;;;;;;7.60;2.13;;;9.30;99.90;;;;;;4962400;29;20023;-80
2023/03/12 07:29:39;;;;;;;6.78;2.20;;;9.40;99.90;;;;;;4962531;29;20106;-81
2023/03/12 07:32:04;;;;;;;7.93;3.10;;;9.40;99.90;;;;;;4962417;29;20154;-81
2023/03/12 07:34:30;;;;;;;9.45;2.60;;;9.40;99.90;;;;;;4962177;29;20106;-81
2023/03/12 07:36:56;;;;;;;8.73;2.38;;;9.50;99.90;;;;;;4962117;29;20036;-81
2023/03/12 07:39:21;;;;;;;9.63;2.47;;;9.60;99.90;;;;;;4961961;29;20027;-81
2023/03/12 07:41:47;;;;;;;10.60;1.92;;;9.60;99.90;;;;;;4950645;29;20028;-81
2023/03/12 07:44:13;;;;;;;9.02;2.50;;;9.70;99.90;;;;;;4942824;29;20083;-80
2023/03/12 07:46:38;;;;;;;10.57;2.30;;;9.70;99.90;;;;;;4942974;29;20023;-80
2023/03/12 07:49:04;;;;;;;10.80;2.67;;;9.70;99.90;;;;;;4945832;29;20038;-80
2023/03/12 07:51:29;;;;;;;11.65;2.30;;;9.80;99.90;;;;;;4942700;29;20024;-81
2023/03/12 07:53:55;;;;;;;7.93;1.98;;;9.90;99.90;;;;;;4942713;29;20088;-81
2023/03/12 07:56:21;;;;;;;12.00;2.65;;;9.90;99.90;;;;;;4925607;29;20031;-81
2023/03/12 07:58:47;;;;;;;12.02;2.53;;;10.00;99.90;;;;;;4947880;29;20031;-81
2023/03/12 08:01:13;;;;;;;8.00;2.40;;;10.00;99.90;;;;;;4944787;29;20031;-82
2023/03/12 08:03:39;;;;;;;10.88;2.72;;;10.10;99.90;;;;;;4944643;29;20031;-82
2023/03/12 08:06:05;;;;;;;10.80;2.72;;;10.10;99.90;;;;;;4961834;29;20019;-82
2023/03/12 08:08:31;;;;;;;9.43;2.45;;;10.20;99.90;;;;;;4944446;28;20023;-83
2023/03/12 08:10:58;;;;;;;7.00;2.05;;;10.30;99.90;;;;;;4961770;29;20050;-83
2023/03/12 08:13:25;;;;;;;11.02;2.05;;;10.30;99.90;;;;;;4961863;29;20035;-84
2023/03/12 08:15:52;;;;;;;12.45;2.38;;;10.30;99.90;;;;;;4961752;29;20568;-82
2023/03/12 08:18:18;;;;;;;10.45;2.42;;;10.40;99.90;;;;;;4961517;29;20038;-83
2023/03/12 08:20:44;;;;;;;15.15;3.45;;;10.40;99.90;;;;;;4961454;28;20030;-83
2023/03/12 08:23:10;;;;;;;13.88;2.53;;;10.50;99.90;;;;;;4944116;29;20410;-83
2023/03/12 08:25:37;;;;;;;12.60;2.92;;;10.50;99.90;;;;;;4944041;29;20027;-83
2023/03/12 08:28:03;;;;;;;13.65;2.78;;;10.50;99.90;;;;;;4961329;29;20031;-84
2023/03/12 08:30:30;;;;;;;13.23;2.72;;;10.60;99.90;;;;;;4961437;29;20075;-84
2023/03/12 08:32:57;;;;;;;15.88;3.38;;;10.60;99.90;;;;;;4961156;29;20046;-84
2023/03/12 08:35:22;;;;;;;12.73;3.08;;;10.70;99.90;;;;;;4944070;29;20024;-83
2023/03/12 08:37:48;;;;;;;9.65;2.72;;;10.70;99.90;;;;;;4960887;29;20030;-83
2023/03/12 08:40:14;;;;;;;9.57;2.53;;;10.70;99.90;;;;;;4961161;29;20027;-83
2023/03/12 08:42:41;;;;;;;11.85;2.38;;;10.80;99.90;;;;;;4942512;29;20035;-82
2023/03/12 08:45:08;;;;;;;11.93;3.05;;;10.80;99.90;;;;;;4942035;29;20110;-83
2023/03/12 08:47:34;;;;;;;12.70;2.85;;;10.90;99.90;;;;;;4945263;29;20066;-83
2023/03/12 08:50:00;;;;;;;13.57;2.67;;;10.90;99.90;;;;;;4941831;29;20023;-82
2023/03/12 08:52:26;;;;;;;12.32;2.95;;;10.90;99.90;;;;;;4924783;29;20032;-81
2023/03/12 08:54:52;;;;;;;10.07;2.97;;;10.90;99.90;;;;;;4941687;29;20034;-81
2023/03/12 08:57:18;;;;;;;11.45;2.83;;;11.00;99.90;;;;;;4941552;29;20396;-82
2023/03/12 08:59:43;;;;;;;11.13;2.85;;;11.10;99.90;;;;;;4941671;29;20155;-79
2023/03/12 09:02:12;;;;;;;14.63;2.70;;;11.20;99.90;;;;;;4941521;29;20042;-80
2023/03/12 09:04:38;;;;;;;13.48;2.63;;;11.30;99.90;;;;;;4941357;29;20031;-81
2023/03/12 09:07:04;;;;;;;10.68;2.75;;;11.30;99.90;;;;;;4959912;29;20031;-80
2023/03/12 09:09:30;;;;;;;13.70;2.70;;;11.50;99.90;;;;;;4960462;29;20035;-79
2023/03/12 09:11:55;;;;;;;12.15;3.10;;;11.60;99.90;;;;;;4960393;29;20023;-79
2023/03/12 09:14:22;;;;;;;12.60;2.92;;;11.60;99.90;;;;;;4943239;29;20031;-80
2023/03/12 09:16:48;;;;;;;16.00;3.05;;;11.60;99.90;;;;;;4960056;29;20031;-78
2023/03/12 09:19:14;;;;;;;13.05;2.95;;;11.70;99.90;;;;;;4934485;29;20023;-78
2023/03/12 09:21:40;;;;;;;18.15;3.25;;;11.80;99.90;;;;;;4932412;29;20537;-79
2023/03/12 09:24:06;;;;;;;13.90;2.83;;;11.80;99.90;;;;;;4948754;29;20039;-78
2023/03/12 09:26:33;;;;;;;18.25;3.35;;;11.90;99.90;;;;;;4948260;29;20106;-78
2023/03/12 09:28:59;;;;;;;17.00;2.85;;;11.90;99.90;;;;;;4935326;29;20052;-79
2023/03/12 09:31:25;;;;;;;17.30;2.85;;;11.90;99.90;;;;;;4933720;29;20023;-79
2023/03/12 09:33:51;;;;;;;17.45;3.17;;;12.00;99.90;;;;;;4946972;29;20039;-78
2023/03/12 09:36:17;;;;;;;14.93;3.22;;;12.10;99.90;;;;;;4943043;29;20035;-80
2023/03/12 09:38:42;;;;;;;15.38;3.05;;;12.30;99.90;;;;;;4929894;29;20039;-78
2023/03/12 09:41:24;;;;;;;14.48;2.83;;;12.50;99.90;;;;;;4950299;29;20472;-79
2023/03/12 09:44:22;;;;;;;11.15;2.70;;;12.60;99.90;;;;;;4947812;29;20024;-78
2023/03/12 09:46:50;;;;;;;18.83;3.58;;;12.70;99.90;;;;;;4949748;29;20019;-78
2023/03/12 09:49:32;;;;;;;15.77;3.10;;;12.70;99.90;;;;;;4929195;29;20019;-79
2023/03/12 09:52:02;;;;;;;10.00;2.33;;;12.80;99.90;;;;;;4931395;29;20024;-78
2023/03/12 09:54:52;;;;;;;15.45;2.90;;;12.90;99.90;;;;;;4947762;29;20028;-77
2023/03/12 09:57:25;;;;;;;11.70;2.33;;;13.00;99.90;;;;;;4948660;29;20071;-78
2023/03/12 09:59:51;;;;;;;;;;;13.10;99.90;;;;;;4948058;29;20030;-78
2023/03/12 10:02:40;;;;;;;13.05;2.65;;;13.20;99.90;;;;;;4950590;29;19964;-78
2023/03/12 10:05:20;;;;;;;12.38;2.28;;;13.20;99.90;;;;;;4949272;29;20087;-78
2023/03/12 10:08:03;;;;;;;14.45;2.90;;;13.30;99.90;;;;;;4932333;29;20098;-78
2023/03/12 10:10:42;;;;;;;14.38;3.15;;;13.20;99.90;;;;;;4949633;29;20019;-77
2023/03/12 10:13:13;;;;;;;12.70;2.60;;;13.30;99.90;;;;;;4949942;29;20111;-78
2023/03/12 10:15:53;;;;;;;17.00;3.50;;;13.40;99.90;;;;;;4959563;29;20502;-78
2023/03/12 10:18:48;;;;;;;13.38;2.83;;;13.40;99.90;;;;;;4939624;29;20063;-77
2023/03/12 10:22:06;;;;;;;15.15;2.65;;;13.50;99.90;;;;;;4947733;29;20047;-77
2023/03/12 10:24:44;;;;;;;12.20;2.95;;;13.50;99.90;;;;;;4907776;29;20518;-78
2023/03/12 10:27:16;;;;;;;12.95;2.88;;;13.50;99.90;;;;;;4944739;29;20027;-79
2023/03/12 10:29:46;;;;;;;17.58;3.42;;;13.70;99.90;;;;;;4949503;29;20023;-79
2023/03/12 10:32:28;;;;;;;14.77;3.10;;;13.60;99.90;;;;;;4926001;29;20064;-78
2023/03/12 10:35:02;;;;;;;15.60;3.10;;;13.70;99.90;;;;;;4939836;29;20042;-78
2023/03/12 10:37:41;;;;;;;16.10;2.70;;;13.70;99.90;;;;;;4939706;29;20095;-78
2023/03/12 10:40:17;;;;;;;14.27;2.78;;;13.70;99.90;;;;;;4933649;29;20030;-79
2023/03/12 10:42:42;;;;;;;13.77;3.22;;;13.90;99.90;;;;;;4923232;29;20432;-77
2023/03/12 10:45:11;;;;;;;19.20;3.20;;;13.90;99.90;;;;;;4940063;29;20023;-79
2023/03/12 10:47:39;;;;;;;16.25;3.28;;;14.00;99.90;;;;;;4928101;29;20019;-79
2023/03/12 10:50:12;;;;;;;17.75;3.88;;;14.00;99.90;;;;;;4942956;29;20067;-79
2023/03/12 10:52:39;;;;;;;17.65;3.33;;;14.20;99.90;;;;;;4924981;29;20034;-79
2023/03/12 10:55:25;;;;;;;14.20;3.08;;;14.10;99.90;;;;;;4954073;29;20057;-78
2023/03/12 10:57:51;;;;;;;14.18;3.38;;;14.10;99.90;;;;;;4926979;29;20030;-78
2023/03/12 11:00:23;;;;;;;20.40;3.25;;;14.10;99.90;;;;;;4953376;29;20447;-79
2023/03/12 11:03:02;;;;;;;13.80;3.23;;;14.10;99.90;;;;;;4940265;29;20023;-78
2023/03/12 11:05:34;;;;;;;16.55;3.72;;;14.20;99.90;;;;;;4939309;29;20263;-79
2023/03/12 11:08:02;;;;;;;16.13;3.65;;;14.20;99.90;;;;;;4957745;29;20543;-79
2023/03/12 11:10:31;;;;;;;17.42;3.22;;;14.30;99.90;;;;;;4941251;29;20159;-79
2023/03/12 11:13:03;;;;;;;16.33;2.85;;;14.40;99.90;;;;;;4957358;29;20114;-80
2023/03/12 11:15:35;;;;;;;15.00;3.13;;;14.50;99.90;;;;;;4958886;29;20023;-81
2023/03/12 11:18:24;;;;;;;13.88;3.33;;;14.50;99.90;;;;;;4958281;29;20040;-79
2023/03/12 11:20:52;;;;;;;14.68;3.13;;;14.70;99.90;;;;;;4941604;28;20027;-78
2023/03/12 11:23:28;;;;;;;18.20;3.20;;;14.80;99.90;;;;;;4958517;29;20110;-79
2023/03/12 11:26:00;;;;;;;19.60;3.70;;;14.90;99.90;;;;;;4958702;29;20019;-79
2023/03/12 11:28:39;;;;;;;22.05;3.47;;;14.90;99.90;;;;;;4958610;29;20027;-79
2023/03/12 11:31:20;;;;;;;17.08;3.53;;;14.80;99.90;;;;;;4925754;29;20038;-78
2023/03/12 11:33:46;;;;;;;18.13;3.67;;;14.70;99.90;;;;;;4922099;29;20496;-78
2023/03/12 11:36:24;;;;;;;21.45;4.38;;;14.70;99.90;;;;;;4927168;29;20091;-79
2023/03/12 11:39:12;;;;;;;13.82;3.65;;;14.60;99.90;;;;;;4940215;29;20027;-78
2023/03/12 11:41:55;;;;;;;16.60;3.70;;;14.70;99.90;;;;;;4948257;29;20028;-78
2023/03/12 11:44:38;;;;;;;17.30;3.33;;;14.80;99.90;;;;;;4940079;29;20055;-77
2023/03/12 11:47:28;;;;;;;17.85;3.33;;;14.70;99.90;;;;;;4942758;29;20088;-78
2023/03/12 11:50:12;;;;;;;12.25;2.92;;;14.70;99.90;;;;;;4944880;29;20045;-79
2023/03/12 11:52:59;;;;;;;17.90;2.90;;;14.70;99.90;;;;;;4932764;29;20136;-79
2023/03/12 11:55:55;;;;;;;13.50;3.22;;;14.70;99.90;;;;;;4950799;29;20397;-78
2023/03/12 11:58:59;;;;;;;15.32;3.20;;;14.80;99.90;;;;;;4933456;29;20122;-78
2023/03/12 12:01:49;;;;;;;15.88;4.00;;;14.90;99.90;;;;;;4950539;29;20107;-80
2023/03/12 12:04:33;;;;;;;15.13;3.20;;;14.90;99.90;;;;;;4932259;29;20066;-78
2023/03/12 12:07:12;;;;;;;20.98;3.67;;;14.80;99.90;;;;;;4932287;29;20047;-79
2023/03/12 12:09:57;;;;;;;17.25;3.40;;;14.90;99.90;;;;;;4949375;29;20019;-79
2023/03/12 12:13:36;;;;;;;15.05;3.40;;;15.00;99.90;;;;;;4944355;29;20034;-77
2023/03/12 12:16:22;;;;;;;15.15;3.20;;;15.20;99.90;;;;;;4767900;30;20410;-78
2023/03/12 12:19:14;;;;;;;15.13;2.90;;;15.20;99.90;;;;;;4846658;29;20095;-78
2023/03/12 12:21:55;;;;;;;14.32;3.15;;;15.10;99.90;;;;;;4933190;29;20051;-77
2023/03/12 12:24:39;;;;;;;20.23;3.28;;;15.00;99.90;;;;;;4949428;29;20083;-78
2023/03/12 12:27:14;;;;;;;17.00;2.67;;;15.00;99.90;;;;;;4932756;29;20020;-77
2023/03/12 12:29:59;;;;;;;13.45;3.40;;;14.80;99.90;;;;;;4933266;29;20027;-77
2023/03/12 12:32:49;;;;;;;19.17;3.60;;;14.80;99.90;;;;;;4948978;29;20503;-77
2023/03/12 12:35:40;;;;;;;10.80;3.03;;;14.90;99.90;;;;;;4950774;29;20479;-78
2023/03/12 12:38:33;;;;;;;13.27;2.78;;;15.20;99.90;;;;;;4950727;29;20019;-77
2023/03/12 12:41:14;;;;;;;9.25;2.00;;;15.60;99.90;;;;;;4950777;29;20035;-78
2023/03/12 12:43:51;;;;;;;14.13;3.15;;;15.90;99.90;;;;;;4951052;29;20641;-85
2023/03/12 12:46:21;;;;;;;14.50;2.92;;;16.00;99.90;;;;;;4951086;29;20046;-84
2023/03/12 12:48:54;;;;;;;12.23;2.75;;;15.80;99.90;;;;;;4933173;29;20103;-84
2023/03/12 12:51:26;;;;;;;12.68;2.65;;;15.70;99.90;;;;;;4950664;29;20031;-78
2023/03/12 12:54:20;;;;;;;17.15;3.10;;;15.50;99.90;;;;;;4948123;29;20027;-83
2023/03/12 12:56:49;;;;;;;10.43;2.58;;;15.40;99.90;;;;;;4949267;29;20411;-85